createdAt,value
2023-02-22T00:01:08.390Z,78.15
2023-02-22T00:03:36.278Z,74.63
2023-02-22T00:06:06.435Z,76.82
2023-02-22T00:08:36.791Z,75.72
2023-02-22T00:11:08.973Z,77.63
2023-02-22T00:13:38.745Z,76.30
2023-02-22T00:16:07.405Z,79.45
2023-02-22T00:18:36.041Z,76.78
2023-02-22T00:21:10.799Z,76.70
2023-02-22T00:23:46.679Z,75.20
2023-02-22T00:26:21.331Z,76.00
2023-02-22T00:28:51.959Z,75.20
2023-02-22T00:31:21.244Z,75.45
2023-02-22T00:33:50.818Z,74.97
2023-02-22T00:36:19.059Z,75.22
2023-02-22T00:38:46.976Z,74.22
2023-02-22T00:41:16.825Z,76.88
2023-02-22T00:43:45.111Z,76.10
2023-02-22T00:46:14.278Z,75.82
2023-02-22T00:48:42.173Z,76.22
2023-02-22T00:51:10.475Z,75.47
2023-02-22T00:53:38.352Z,75.40
2023-02-22T00:56:07.453Z,75.05
2023-02-22T00:58:35.420Z,75.72
2023-02-22T01:01:03.808Z,76.68
2023-02-22T01:03:32.532Z,71.88
2023-02-22T01:06:00.901Z,76.15
2023-02-22T01:08:31.542Z,75.35
2023-02-22T01:11:00.152Z,75.28
2023-02-22T01:13:28.244Z,70.05
2023-02-22T01:16:17.329Z,76.35
2023-02-22T01:18:45.437Z,70.82
2023-02-22T01:21:14.063Z,75.47
2023-02-22T01:23:45.414Z,72.90
2023-02-22T01:26:13.887Z,75.00
2023-02-22T01:28:41.866Z,72.78
2023-02-22T01:31:11.013Z,70.88
2023-02-22T01:33:41.844Z,74.80
2023-02-22T01:36:11.706Z,75.68
2023-02-22T01:38:39.854Z,77.03
2023-02-22T01:41:08.621Z,72.32
2023-02-22T01:43:38.290Z,73.00
2023-02-22T01:46:21.907Z,70.40
2023-02-22T01:49:01.172Z,71.85
2023-02-22T01:51:44.347Z,72.40
2023-02-22T01:54:46.598Z,76.22
2023-02-22T01:57:32.444Z,73.40
2023-02-22T02:00:24.825Z,72.90
2023-02-22T02:03:01.476Z,75.32
2023-02-22T02:05:31.883Z,74.82
2023-02-22T02:08:13.475Z,74.05
2023-02-22T02:10:44.664Z,77.45
2023-02-22T02:13:13.279Z,80.00
2023-02-22T02:15:41.270Z,78.07
2023-02-22T02:18:12.717Z,77.07
2023-02-22T02:20:59.357Z,79.75
2023-02-22T02:24:02.529Z,76.07
2023-02-22T02:26:51.988Z,78.25
2023-02-22T02:29:59.603Z,77.65
2023-02-22T02:32:33.709Z,72.65
2023-02-22T02:35:05.278Z,76.10
2023-02-22T02:37:54.327Z,74.53
2023-02-22T02:40:39.723Z,72.85
2023-02-22T02:43:32.448Z,79.15
2023-02-22T02:46:12.833Z,76.00
2023-02-22T02:48:50.658Z,75.90
2023-02-22T02:51:22.583Z,75.53
2023-02-22T02:53:52.877Z,72.40
2023-02-22T02:56:23.548Z,74.05
2023-02-22T02:58:53.534Z,75.22
2023-02-22T03:01:49.118Z,74.70
2023-02-22T03:04:40.342Z,74.65
2023-02-22T03:07:35.121Z,77.80
2023-02-22T03:10:44.544Z,73.88
2023-02-22T03:13:31.104Z,74.38
2023-02-22T03:16:27.415Z,73.20
2023-02-22T03:19:33.379Z,73.60
2023-02-22T03:22:19.080Z,74.80
2023-02-22T03:24:53.333Z,77.25
2023-02-22T03:27:34.539Z,74.70
2023-02-22T03:30:12.995Z,75.72
2023-02-22T03:32:46.441Z,74.30
2023-02-22T03:35:30.742Z,77.28
2023-02-22T03:38:04.185Z,75.28
2023-02-22T03:40:37.047Z,75.50
2023-02-22T03:43:09.633Z,77.50
2023-02-22T03:45:45.586Z,74.40
2023-02-22T03:48:29.922Z,78.10
2023-02-22T03:51:04.981Z,77.88
2023-02-22T03:53:37.677Z,78.57
2023-02-22T03:56:14.013Z,75.82
2023-02-22T03:58:48.364Z,75.33
2023-02-22T04:01:17.552Z,74.97
2023-02-22T04:03:46.236Z,76.22
2023-02-22T04:06:15.110Z,76.40
2023-02-22T04:08:44.519Z,75.97
2023-02-22T04:11:13.572Z,74.85
2023-02-22T04:13:42.751Z,77.72
2023-02-22T04:16:11.312Z,77.78
2023-02-22T04:18:40.668Z,79.18
2023-02-22T04:21:09.515Z,77.50
2023-02-22T04:23:42.275Z,78.90
2023-02-22T04:26:10.622Z,75.03
2023-02-22T04:28:39.431Z,74.28
2023-02-22T04:31:23.841Z,76.40
2023-02-22T04:33:53.602Z,76.18
2023-02-22T04:36:27.432Z,72.95
2023-02-22T04:38:55.501Z,80.32
2023-02-22T04:41:25.586Z,81.32
2023-02-22T04:43:54.231Z,76.32
2023-02-22T04:46:25.049Z,75.32
2023-02-22T04:48:54.761Z,77.57
2023-02-22T04:51:26.566Z,77.82
2023-02-22T04:54:01.143Z,76.28
2023-02-22T04:56:30.956Z,77.88
2023-02-22T04:58:58.872Z,78.53
2023-02-22T05:01:32.230Z,76.78
2023-02-22T05:04:03.303Z,76.10
2023-02-22T05:06:31.513Z,80.10
2023-02-22T05:08:59.618Z,75.30
2023-02-22T05:11:28.074Z,75.47
2023-02-22T05:13:56.250Z,77.90
2023-02-22T05:16:24.678Z,77.65
2023-02-22T05:18:52.570Z,76.65
2023-02-22T05:21:20.907Z,77.03
2023-02-22T05:23:49.113Z,77.03
2023-02-22T05:26:17.445Z,79.07
2023-02-22T05:28:45.563Z,78.25
2023-02-22T05:31:13.807Z,76.25
2023-02-22T05:33:41.833Z,78.20
2023-02-22T05:36:10.327Z,76.20
2023-02-22T05:38:43.650Z,76.38
2023-02-22T05:41:13.893Z,76.68
2023-02-22T05:43:42.436Z,77.03
2023-02-22T05:46:11.404Z,81.65
2023-02-22T05:48:39.392Z,75.78
2023-02-22T05:51:07.902Z,75.97
2023-02-22T05:53:36.075Z,77.15
2023-02-22T05:56:04.937Z,75.45
2023-02-22T05:58:32.934Z,76.38
2023-02-22T06:01:03.005Z,81.70
2023-02-22T06:03:31.324Z,77.53
2023-02-22T06:05:59.774Z,79.15
2023-02-22T06:08:27.741Z,78.55
2023-02-22T06:10:56.087Z,79.85
2023-02-22T06:13:24.013Z,81.22
2023-02-22T06:15:52.389Z,77.00
2023-02-22T06:18:20.378Z,76.90
2023-02-22T06:20:48.697Z,79.57
2023-02-22T06:23:16.722Z,77.40
2023-02-22T06:25:45.032Z,78.05
2023-02-22T06:28:13.007Z,76.82
2023-02-22T06:30:43.429Z,78.43
2023-02-22T06:33:12.128Z,77.55
2023-02-22T06:35:40.537Z,79.03
2023-02-22T06:38:08.848Z,76.82
2023-02-22T06:40:37.476Z,80.18
2023-02-22T06:43:05.530Z,76.35
2023-02-22T06:45:33.918Z,79.40
2023-02-22T06:48:01.802Z,77.55
2023-02-22T06:50:31.434Z,74.85
2023-02-22T06:52:59.536Z,76.20
2023-02-22T06:55:30.748Z,79.07
2023-02-22T06:57:59.725Z,76.90
2023-02-22T07:00:30.475Z,82.68
2023-02-22T07:02:59.705Z,79.32
2023-02-22T07:05:29.057Z,76.85
2023-02-22T07:08:05.203Z,75.60
2023-02-22T07:10:35.330Z,81.28
2023-02-22T07:13:05.183Z,77.30
2023-02-22T07:15:35.340Z,78.50
2023-02-22T07:18:03.430Z,79.63
2023-02-22T07:20:33.130Z,80.13
2023-02-22T07:23:01.482Z,81.80
2023-02-22T07:25:29.847Z,78.35
2023-02-22T07:27:58.129Z,78.93
2023-02-22T07:30:34.266Z,78.28
2023-02-22T07:33:05.124Z,75.38
2023-02-22T07:35:38.900Z,78.03
2023-02-22T07:38:11.125Z,77.65
2023-02-22T07:40:39.970Z,77.63
2023-02-22T07:43:22.879Z,76.78
2023-02-22T07:45:53.253Z,77.45
2023-02-22T07:48:23.950Z,78.13
2023-02-22T07:50:52.662Z,76.93
2023-02-22T07:53:33.697Z,76.70
2023-02-22T07:56:05.517Z,77.35
2023-02-22T07:58:33.766Z,82.63
2023-02-22T08:01:05.282Z,79.82
2023-02-22T08:03:36.965Z,80.93
2023-02-22T08:06:07.294Z,79.55
2023-02-22T08:08:35.373Z,79.28
2023-02-22T08:11:03.885Z,82.25
2023-02-22T08:13:33.009Z,76.18
2023-02-22T08:16:01.312Z,77.25
2023-02-22T08:18:29.277Z,79.97
2023-02-22T08:20:57.678Z,76.47
2023-02-22T08:23:27.277Z,79.78
2023-02-22T08:25:56.275Z,80.53
2023-02-22T08:28:25.164Z,75.80
2023-02-22T08:30:54.161Z,80.78
2023-02-22T08:33:22.557Z,79.03
2023-02-22T08:35:51.974Z,83.05
2023-02-22T08:38:31.568Z,80.18
2023-02-22T08:40:59.919Z,84.72
2023-02-22T08:43:28.690Z,78.95
2023-02-22T08:45:57.913Z,78.53
2023-02-22T08:48:26.095Z,78.78
2023-02-22T08:50:55.091Z,78.18
2023-02-22T08:53:23.274Z,81.00
2023-02-22T08:55:51.704Z,78.25
2023-02-22T08:58:19.917Z,78.53
2023-02-22T09:00:48.454Z,79.72
2023-02-22T09:03:16.611Z,75.07
2023-02-22T09:05:45.336Z,75.60
2023-02-22T09:08:13.471Z,75.15
2023-02-22T09:10:41.924Z,71.82
2023-02-22T09:13:09.876Z,72.25
2023-02-22T09:15:40.213Z,72.25
2023-02-22T09:18:09.712Z,75.32
2023-02-22T09:20:38.280Z,72.55
2023-02-22T09:23:09.973Z,75.85
2023-02-22T09:25:41.066Z,79.03
2023-02-22T09:28:09.490Z,74.80
2023-02-22T09:30:38.100Z,76.78
2023-02-22T09:33:10.331Z,75.50
2023-02-22T09:35:42.824Z,73.22
2023-02-22T09:38:11.901Z,72.78
2023-02-22T09:40:48.121Z,73.78
2023-02-22T09:43:27.702Z,70.57
2023-02-22T09:46:19.908Z,71.97
2023-02-22T09:48:53.892Z,66.55
2023-02-22T09:51:26.934Z,63.88
2023-02-22T09:54:00.567Z,62.55
2023-02-22T09:56:31.556Z,62.30
2023-02-22T09:59:04.274Z,59.28
2023-02-22T10:01:43.616Z,59.92
2023-02-22T10:04:19.640Z,61.35
2023-02-22T10:07:29.544Z,65.03
2023-02-22T10:09:59.123Z,64.47
2023-02-22T10:13:02.894Z,62.85
2023-02-22T10:15:42.689Z,67.57
2023-02-22T10:18:44.852Z,61.45
2023-02-22T10:21:24.593Z,64.50
2023-02-22T10:24:30.203Z,69.43
2023-02-22T10:26:59.956Z,66.50
2023-02-22T10:29:48.128Z,64.50
2023-02-22T10:32:22.203Z,62.50
2023-02-22T10:34:51.794Z,65.20
2023-02-22T10:37:34.345Z,59.28
2023-02-22T10:40:14.290Z,62.13
2023-02-22T10:42:42.920Z,63.40
2023-02-22T10:45:37.809Z,62.63
2023-02-22T10:48:09.749Z,65.10
2023-02-22T10:50:41.979Z,64.05
2023-02-22T10:53:11.377Z,64.20
2023-02-22T10:56:25.195Z,62.58
2023-02-22T10:59:00.053Z,61.60
2023-02-22T11:01:31.338Z,60.75
2023-02-22T11:04:05.028Z,60.78
2023-02-22T11:06:35.132Z,63.30
2023-02-22T11:09:29.449Z,59.67
2023-02-22T11:12:22.200Z,59.97
2023-02-22T11:14:50.252Z,64.85
2023-02-22T11:17:30.781Z,59.90
2023-02-22T11:19:59.912Z,62.88
2023-02-22T11:22:42.958Z,64.38
2023-02-22T11:25:22.148Z,60.60
2023-02-22T11:27:52.351Z,61.10
2023-02-22T11:30:27.719Z,59.97
2023-02-22T11:33:23.769Z,61.25
2023-02-22T11:36:04.967Z,62.42
2023-02-22T11:38:38.097Z,63.10
2023-02-22T11:41:43.580Z,65.50
2023-02-22T11:44:27.886Z,63.65
2023-02-22T11:47:07.200Z,63.30
2023-02-22T11:49:42.945Z,65.82
2023-02-22T11:52:27.184Z,65.97
2023-02-22T11:54:58.293Z,69.93
2023-02-22T11:57:48.063Z,67.68
2023-02-22T12:00:43.724Z,63.80
2023-02-22T12:03:23.914Z,67.63
2023-02-22T12:06:40.864Z,66.32
2023-02-22T12:09:33.349Z,65.30
2023-02-22T12:12:10.752Z,61.85
2023-02-22T12:14:47.912Z,61.92
2023-02-22T12:17:25.574Z,62.25
2023-02-22T12:20:07.310Z,63.28
2023-02-22T12:22:48.063Z,65.55
2023-02-22T12:25:16.042Z,64.43
2023-02-22T12:28:24.829Z,64.20
2023-02-22T12:31:02.032Z,63.70
2023-02-22T12:33:54.716Z,63.58
2023-02-22T12:36:29.284Z,64.68
2023-02-22T12:39:07.478Z,62.15
2023-02-22T12:42:02.330Z,61.80
2023-02-22T12:44:38.822Z,64.10
2023-02-22T12:47:09.385Z,62.67
2023-02-22T12:49:49.894Z,63.85
2023-02-22T12:52:32.882Z,63.67
2023-02-22T12:55:29.230Z,64.80
2023-02-22T12:58:01.471Z,65.65
2023-02-22T13:01:12.531Z,65.05
2023-02-22T13:03:44.254Z,62.53
2023-02-22T13:06:36.932Z,63.67
2023-02-22T13:09:44.739Z,65.20
2023-02-22T13:12:36.023Z,64.20
2023-02-22T13:15:39.501Z,64.20
2023-02-22T13:18:15.172Z,63.67
2023-02-22T13:20:53.797Z,66.82
2023-02-22T13:23:36.272Z,64.60
2023-02-22T13:26:25.243Z,61.90
2023-02-22T13:28:57.395Z,63.42
2023-02-22T13:31:39.936Z,60.33
2023-02-22T13:36:58.685Z,62.75
2023-02-22T13:40:17.091Z,63.30
2023-02-22T13:42:51.248Z,60.92
2023-02-22T13:45:40.814Z,65.60
2023-02-22T13:48:23.374Z,63.20
2023-02-22T13:51:19.044Z,60.75
2023-02-22T13:54:03.899Z,60.42
2023-02-22T13:56:33.364Z,60.97
2023-02-22T13:59:05.071Z,62.45
2023-02-22T14:01:45.925Z,62.33
2023-02-22T14:04:37.623Z,59.25
2023-02-22T14:07:25.858Z,60.53
2023-02-22T14:09:56.790Z,62.72
2023-02-22T14:12:31.430Z,60.13
2023-02-22T14:15:28.680Z,61.10
2023-02-22T14:18:02.243Z,60.90
2023-02-22T14:20:37.179Z,60.30
2023-02-22T14:23:30.267Z,59.90
2023-02-22T14:26:29.432Z,57.40
2023-02-22T14:29:03.003Z,56.08
2023-02-22T14:31:52.112Z,56.67
2023-02-22T14:34:42.239Z,57.80
2023-02-22T14:37:18.948Z,57.80
2023-02-22T14:39:53.712Z,61.42
2023-02-22T14:42:27.808Z,57.70
2023-02-22T14:45:09.798Z,59.40
2023-02-22T14:47:49.774Z,57.25
2023-02-22T14:50:24.220Z,58.38
2023-02-22T14:53:25.689Z,57.05
2023-02-22T14:56:04.638Z,56.28
2023-02-22T14:58:51.650Z,60.13
2023-02-22T15:01:47.496Z,59.25
2023-02-22T15:04:23.692Z,64.20
2023-02-22T15:06:53.738Z,62.17
2023-02-22T15:09:27.818Z,59.00
2023-02-22T15:12:03.590Z,60.38
2023-02-22T15:14:37.902Z,57.83
2023-02-22T15:17:22.897Z,59.38
2023-02-22T15:22:35.628Z,59.75
2023-02-22T15:25:08.468Z,58.08
2023-02-22T15:27:38.046Z,60.53
2023-02-22T15:30:17.046Z,59.35
2023-02-22T15:33:02.746Z,57.47
2023-02-22T15:35:33.814Z,58.13
2023-02-22T15:38:06.955Z,58.85
2023-02-22T15:40:36.309Z,58.08
2023-02-22T15:43:09.138Z,59.50
2023-02-22T15:45:43.248Z,60.53
2023-02-22T15:48:12.481Z,59.45
2023-02-22T15:50:40.620Z,56.03
2023-02-22T15:53:31.557Z,58.70
2023-02-22T15:56:03.748Z,57.33
2023-02-22T15:58:32.270Z,59.38
2023-02-22T16:01:03.343Z,56.90
2023-02-22T16:03:47.346Z,58.72
2023-02-22T16:06:40.729Z,56.88
2023-02-22T16:09:09.220Z,57.65
2023-02-22T16:11:43.429Z,57.63
2023-02-22T16:14:36.565Z,57.30
2023-02-22T16:17:29.080Z,56.40
2023-02-22T16:20:21.660Z,59.53
2023-02-22T16:22:50.192Z,59.20
2023-02-22T16:25:18.420Z,60.05
2023-02-22T16:28:06.406Z,62.88
2023-02-22T16:30:37.422Z,61.92
2023-02-22T16:33:13.848Z,63.38
2023-02-22T16:35:52.239Z,62.10
2023-02-22T16:38:21.366Z,61.17
2023-02-22T16:40:55.395Z,59.08
2023-02-22T16:45:53.418Z,57.00
2023-02-22T16:48:24.598Z,60.75
2023-02-22T16:50:56.037Z,62.75
2023-02-22T16:53:26.523Z,65.05
2023-02-22T16:56:00.647Z,64.85
2023-02-22T17:00:57.878Z,58.72
2023-02-22T17:03:27.162Z,61.78
2023-02-22T17:05:55.745Z,60.78
2023-02-22T17:08:24.287Z,65.32
2023-02-22T17:10:57.162Z,62.95
2023-02-22T17:13:29.441Z,62.28
2023-02-22T17:15:58.201Z,60.25
2023-02-22T17:18:29.127Z,63.97
2023-02-22T17:20:57.536Z,61.40
2023-02-22T17:23:28.025Z,64.38
2023-02-22T17:26:02.477Z,66.10
2023-02-22T17:28:31.797Z,61.40
2023-02-22T17:31:02.088Z,65.38
2023-02-22T17:33:34.641Z,61.90
2023-02-22T17:36:05.200Z,67.57
2023-02-22T17:38:34.771Z,63.97
2023-02-22T17:41:03.917Z,61.92
2023-02-22T17:43:31.992Z,64.78
2023-02-22T17:46:00.690Z,65.03
2023-02-22T17:48:28.776Z,68.18
2023-02-22T17:50:57.342Z,67.65
2023-02-22T17:53:25.693Z,67.63
2023-02-22T17:55:54.459Z,64.75
2023-02-22T17:58:24.085Z,64.32
2023-02-22T18:00:59.397Z,69.22
2023-02-22T18:03:27.713Z,65.32
2023-02-22T18:05:59.026Z,67.28
2023-02-22T18:08:32.329Z,68.22
2023-02-22T18:11:05.671Z,68.13
2023-02-22T18:13:33.676Z,69.53
2023-02-22T18:16:05.300Z,70.70
2023-02-22T18:18:33.494Z,71.50
2023-02-22T18:21:02.581Z,68.47
2023-02-22T18:23:32.431Z,70.63
2023-02-22T18:26:11.025Z,69.00
2023-02-22T18:28:40.313Z,71.82
2023-02-22T18:31:15.104Z,68.90
2023-02-22T18:33:44.964Z,70.18
2023-02-22T18:36:14.627Z,72.72
2023-02-22T18:38:43.967Z,68.97
2023-02-22T18:41:15.138Z,67.60
2023-02-22T18:43:43.731Z,70.68
2023-02-22T18:46:23.660Z,72.50
2023-02-22T18:48:56.519Z,73.78
2023-02-22T18:51:26.486Z,72.00
2023-02-22T18:54:00.856Z,73.38
2023-02-22T18:56:30.465Z,72.47
2023-02-22T18:59:01.417Z,70.95
2023-02-22T19:01:31.635Z,74.80
2023-02-22T19:04:00.916Z,71.72
2023-02-22T19:06:29.363Z,73.88
2023-02-22T19:09:01.504Z,70.75
2023-02-22T19:11:30.077Z,71.88
2023-02-22T19:13:58.313Z,76.95
2023-02-22T19:16:27.435Z,73.75
2023-02-22T19:18:59.326Z,71.70
2023-02-22T19:21:29.277Z,75.10
2023-02-22T19:24:06.921Z,74.50
2023-02-22T19:26:35.273Z,74.35
2023-02-22T19:29:08.659Z,76.72
2023-02-22T19:34:09.292Z,71.10
2023-02-22T19:36:39.332Z,74.50
2023-02-22T19:39:08.678Z,78.85
2023-02-22T19:41:37.109Z,78.35
2023-02-22T19:44:05.819Z,76.95
2023-02-22T19:46:34.464Z,78.90
2023-02-22T19:49:03.344Z,74.70
2023-02-22T19:51:32.424Z,72.80
2023-02-22T19:54:13.126Z,74.18
2023-02-22T19:56:41.502Z,74.07
2023-02-22T19:59:14.542Z,75.60
2023-02-22T20:01:46.280Z,73.72
2023-02-22T20:04:18.712Z,76.30
2023-02-22T20:06:50.752Z,77.73
2023-02-22T20:09:21.564Z,75.03
2023-02-22T20:11:54.133Z,75.47
2023-02-22T20:14:25.043Z,76.72
2023-02-22T20:16:55.459Z,74.90
2023-02-22T20:19:24.623Z,74.03
2023-02-22T20:21:56.153Z,77.00
2023-02-22T20:24:25.612Z,74.32
2023-02-22T20:26:57.541Z,73.03
2023-02-22T20:29:32.361Z,78.60
2023-02-22T20:32:02.409Z,74.10
2023-02-22T20:34:34.419Z,77.45
2023-02-22T20:37:06.015Z,77.85
2023-02-22T20:39:35.459Z,77.85
2023-02-22T20:42:05.311Z,75.93
2023-02-22T20:44:34.838Z,74.22
2023-02-22T20:47:06.008Z,75.07
2023-02-22T20:49:35.504Z,74.43
2023-02-22T20:52:05.716Z,75.97
2023-02-22T20:54:36.449Z,77.70
2023-02-22T20:57:09.088Z,74.43
2023-02-22T20:59:38.388Z,74.90
2023-02-22T21:02:08.109Z,75.38
2023-02-22T21:04:37.601Z,74.30
2023-02-22T21:07:10.327Z,79.43
2023-02-22T21:09:40.126Z,74.53
2023-02-22T21:12:14.134Z,74.32
2023-02-22T21:14:44.436Z,75.97
2023-02-22T21:17:12.812Z,75.45
2023-02-22T21:19:41.157Z,72.40
2023-02-22T21:22:10.186Z,74.28
2023-02-22T21:24:38.235Z,73.70
2023-02-22T21:27:07.143Z,75.53
2023-02-22T21:29:35.755Z,76.15
2023-02-22T21:32:04.403Z,76.05
2023-02-22T21:34:32.410Z,74.30
2023-02-22T21:37:00.636Z,76.60
2023-02-22T21:39:29.239Z,75.25
2023-02-22T21:42:01.254Z,75.78
2023-02-22T21:44:29.891Z,74.03
2023-02-22T21:46:58.301Z,75.40
2023-02-22T21:49:26.192Z,73.00
2023-02-22T21:51:54.688Z,74.05
2023-02-22T21:54:23.418Z,71.82
2023-02-22T21:56:52.323Z,74.85
2023-02-22T21:59:23.617Z,73.90
2023-02-22T22:01:56.208Z,70.40
2023-02-22T22:04:30.762Z,74.55
2023-02-22T22:07:00.893Z,74.75
2023-02-22T22:09:33.527Z,72.35
2023-02-22T22:12:05.505Z,72.15
2023-02-22T22:14:34.766Z,72.63
2023-02-22T22:17:07.212Z,76.20
2023-02-22T22:19:39.541Z,66.22
2023-02-22T22:22:09.722Z,68.93
2023-02-22T22:24:38.162Z,70.95
2023-02-22T22:27:09.960Z,69.07
2023-02-22T22:29:37.812Z,73.35
2023-02-22T22:32:06.908Z,69.80
2023-02-22T22:34:35.181Z,67.93
2023-02-22T22:37:03.735Z,66.88
2023-02-22T22:39:31.764Z,71.30
2023-02-22T22:42:00.007Z,74.43
2023-02-22T22:44:33.046Z,72.15
2023-02-22T22:47:01.427Z,71.13
2023-02-22T22:49:31.686Z,73.80
2023-02-22T22:51:59.884Z,72.07
2023-02-22T22:54:27.786Z,69.50
2023-02-22T22:56:55.989Z,70.43
2023-02-22T22:59:24.010Z,67.70
2023-02-22T23:01:52.540Z,70.70
2023-02-22T23:04:21.830Z,68.72
2023-02-22T23:06:52.097Z,73.35
2023-02-22T23:09:22.849Z,69.65
2023-02-22T23:11:54.149Z,71.82
2023-02-22T23:14:25.269Z,74.53
2023-02-22T23:17:04.448Z,72.22
2023-02-22T23:19:34.995Z,73.60
2023-02-22T23:22:08.623Z,73.85
2023-02-22T23:24:37.436Z,73.15
2023-02-22T23:27:07.772Z,73.18
2023-02-22T23:29:41.391Z,75.50
2023-02-22T23:32:09.767Z,69.90
2023-02-22T23:34:41.407Z,75.50
2023-02-22T23:37:10.933Z,72.78
2023-02-22T23:39:39.040Z,75.28
2023-02-22T23:42:10.211Z,72.00
2023-02-22T23:44:40.020Z,73.30
2023-02-22T23:47:09.854Z,71.13
2023-02-22T23:49:38.878Z,73.35
2023-02-22T23:52:09.227Z,74.50
2023-02-22T23:54:44.102Z,73.88
2023-02-22T23:57:12.498Z,72.05
2023-02-22T23:59:40.689Z,73.00
